Watauga, Tennessee
Current Conditions -  °F | °C
As of 8:15 PM on Saturday 20 Dec 2014 (Local Time) from K0A9 Reporting Station
Haze Haze  
Wind Chill:   Ceiling: 800
Heat Index:   Visibility: 2mi
Dew Point:   Wind: 0mph
Humidity: 100%   Direction: NA
Pressure: 30.21"   Gusts: NA
Location:  36.37°N, 82.3°W
Report Text: K0A9 210115Z AUTO 00000KT 2SM BR OVC008 03/03 A3021 RMK
Loading
Personal Weather Stations






























Interactive Weather Map New forecast layout! Learn more

10-Day Weather Forecast

Advertisements
Track Severe Weather on mobile